sensor_id;sensor_type;location;lat;lon;timestamp;temperature;humidity
26982;DHT22;14533;50.848;4.380;2022-09-09T00:04:38;16.50;99.90
26982;DHT22;14533;50.848;4.380;2022-09-09T00:06:55;16.30;99.90
26982;DHT22;14533;50.848;4.380;2022-09-09T00:09:27;16.30;99.90
26982;DHT22;14533;50.848;4.380;2022-09-09T00:12:15;16.20;99.90
26982;DHT22;14533;50.848;4.380;2022-09-09T00:14:56;16.20;99.90
26982;DHT22;14533;50.848;4.380;2022-09-09T00:17:36;16.30;99.90
26982;DHT22;14533;50.848;4.380;2022-09-09T00:20:13;16.30;99.90
26982;DHT22;14533;50.848;4.380;2022-09-09T00:22:53;16.30;99.90
26982;DHT22;14533;50.848;4.380;2022-09-09T00:25:29;16.30;99.90
26982;DHT22;14533;50.848;4.380;2022-09-09T00:27:59;16.30;99.90
26982;DHT22;14533;50.848;4.380;2022-09-09T00:30:31;16.40;99.90
26982;DHT22;14533;50.848;4.380;2022-09-09T00:33:01;16.30;99.90
26982;DHT22;14533;50.848;4.380;2022-09-09T00:35:52;16.40;99.90
26982;DHT22;14533;50.848;4.380;2022-09-09T00:38:38;16.60;99.90
26982;DHT22;14533;50.848;4.380;2022-09-09T00:41:09;16.70;99.90
26982;DHT22;14533;50.848;4.380;2022-09-09T00:43:38;16.60;99.90
26982;DHT22;14533;50.848;4.380;2022-09-09T00:49:50;16.30;99.90
26982;DHT22;14533;50.848;4.380;2022-09-09T00:57:38;16.40;99.90
26982;DHT22;14533;50.848;4.380;2022-09-09T01:00:33;16.30;99.90
26982;DHT22;14533;50.848;4.380;2022-09-09T01:11:02;16.40;99.90
26982;DHT22;14533;50.848;4.380;2022-09-09T01:13:33;16.20;99.90
26982;DHT22;14533;50.848;4.380;2022-09-09T01:16:04;16.30;99.90
26982;DHT22;14533;50.848;4.380;2022-09-09T01:18:37;16.40;99.90
26982;DHT22;14533;50.848;4.380;2022-09-09T01:24:01;16.30;99.90
26982;DHT22;14533;50.848;4.380;2022-09-09T01:26:42;16.40;99.90
26982;DHT22;14533;50.848;4.380;2022-09-09T01:29:10;16.40;99.90
26982;DHT22;14533;50.848;4.380;2022-09-09T01:34:12;16.40;99.90
26982;DHT22;14533;50.848;4.380;2022-09-09T01:36:51;16.40;99.90
26982;DHT22;14533;50.848;4.380;2022-09-09T01:39:19;16.30;99.90
26982;DHT22;14533;50.848;4.380;2022-09-09T01:41:45;16.30;99.90
26982;DHT22;14533;50.848;4.380;2022-09-09T01:44:11;16.30;99.90
26982;DHT22;14533;50.848;4.380;2022-09-09T01:46:37;16.40;99.90
26982;DHT22;14533;50.848;4.380;2022-09-09T01:49:05;16.40;99.90
26982;DHT22;14533;50.848;4.380;2022-09-09T01:51:36;16.40;99.90
26982;DHT22;14533;50.848;4.380;2022-09-09T01:54:02;16.30;99.90
26982;DHT22;14533;50.848;4.380;2022-09-09T02:02:32;16.20;99.90
26982;DHT22;14533;50.848;4.380;2022-09-09T02:05:57;16.20;99.90
26982;DHT22;14533;50.848;4.380;2022-09-09T02:08:08;16.30;99.90
26982;DHT22;14533;50.848;4.380;2022-09-09T02:10:40;16.30;99.90
26982;DHT22;14533;50.848;4.380;2022-09-09T02:13:12;16.40;99.90
26982;DHT22;14533;50.848;4.380;2022-09-09T02:18:08;16.40;99.90
26982;DHT22;14533;50.848;4.380;2022-09-09T02:20:38;16.40;99.90
26982;DHT22;14533;50.848;4.380;2022-09-09T02:23:05;16.30;99.90
26982;DHT22;14533;50.848;4.380;2022-09-09T02:25:36;16.30;99.90
26982;DHT22;14533;50.848;4.380;2022-09-09T02:28:04;16.40;99.90
26982;DHT22;14533;50.848;4.380;2022-09-09T02:30:32;16.40;99.90
26982;DHT22;14533;50.848;4.380;2022-09-09T02:33:02;16.40;99.90
26982;DHT22;14533;50.848;4.380;2022-09-09T02:35:30;16.40;99.90
26982;DHT22;14533;50.848;4.380;2022-09-09T02:38:00;16.30;99.90
26982;DHT22;14533;50.848;4.380;2022-09-09T02:40:27;16.30;99.90
26982;DHT22;14533;50.848;4.380;2022-09-09T02:42:54;16.20;99.90
26982;DHT22;14533;50.848;4.380;2022-09-09T02:45:27;16.20;99.90
26982;DHT22;14533;50.848;4.380;2022-09-09T02:48:07;16.30;99.90
26982;DHT22;14533;50.848;4.380;2022-09-09T02:51:23;16.20;99.90
26982;DHT22;14533;50.848;4.380;2022-09-09T02:53:39;16.20;99.90
26982;DHT22;14533;50.848;4.380;2022-09-09T02:56:17;16.10;99.90
26982;DHT22;14533;50.848;4.380;2022-09-09T02:58:43;16.10;99.90
26982;DHT22;14533;50.848;4.380;2022-09-09T03:01:09;16.20;99.90
26982;DHT22;14533;50.848;4.380;2022-09-09T03:03:35;16.20;99.90
26982;DHT22;14533;50.848;4.380;2022-09-09T03:06:01;16.30;99.90
26982;DHT22;14533;50.848;4.380;2022-09-09T03:08:27;16.20;99.90
26982;DHT22;14533;50.848;4.380;2022-09-09T03:10:54;16.20;99.90
26982;DHT22;14533;50.848;4.380;2022-09-09T03:13:21;16.30;99.90
26982;DHT22;14533;50.848;4.380;2022-09-09T03:15:48;16.40;99.90
26982;DHT22;14533;50.848;4.380;2022-09-09T03:18:14;16.40;99.90
26982;DHT22;14533;50.848;4.380;2022-09-09T03:20:42;16.30;99.90
26982;DHT22;14533;50.848;4.380;2022-09-09T03:23:07;16.20;99.90
26982;DHT22;14533;50.848;4.380;2022-09-09T03:25:33;16.10;99.90
26982;DHT22;14533;50.848;4.380;2022-09-09T03:27:59;16.10;99.90
26982;DHT22;14533;50.848;4.380;2022-09-09T03:30:26;16.10;99.90
26982;DHT22;14533;50.848;4.380;2022-09-09T03:32:52;16.10;99.90
26982;DHT22;14533;50.848;4.380;2022-09-09T03:35:19;16.00;99.90
26982;DHT22;14533;50.848;4.380;2022-09-09T03:37:45;16.00;99.90
26982;DHT22;14533;50.848;4.380;2022-09-09T03:40:11;16.00;99.90
26982;DHT22;14533;50.848;4.380;2022-09-09T03:42:38;16.10;99.90
26982;DHT22;14533;50.848;4.380;2022-09-09T03:45:05;16.00;99.90
26982;DHT22;14533;50.848;4.380;2022-09-09T03:47:31;16.00;99.90
26982;DHT22;14533;50.848;4.380;2022-09-09T03:49:57;16.00;99.90
26982;DHT22;14533;50.848;4.380;2022-09-09T03:52:24;15.90;99.90
26982;DHT22;14533;50.848;4.380;2022-09-09T03:54:51;16.00;99.90
26982;DHT22;14533;50.848;4.380;2022-09-09T03:57:18;16.10;99.90
26982;DHT22;14533;50.848;4.380;2022-09-09T03:59:44;16.20;99.90
26982;DHT22;14533;50.848;4.380;2022-09-09T04:02:10;16.20;99.90
26982;DHT22;14533;50.848;4.380;2022-09-09T04:04:35;16.30;99.90
26982;DHT22;14533;50.848;4.380;2022-09-09T04:07:01;16.00;99.90
26982;DHT22;14533;50.848;4.380;2022-09-09T04:09:27;16.00;99.90
26982;DHT22;14533;50.848;4.380;2022-09-09T04:11:52;16.10;99.90
26982;DHT22;14533;50.848;4.380;2022-09-09T04:14:19;16.10;99.90
26982;DHT22;14533;50.848;4.380;2022-09-09T04:16:45;16.10;99.90
26982;DHT22;14533;50.848;4.380;2022-09-09T04:19:11;16.10;99.90
26982;DHT22;14533;50.848;4.380;2022-09-09T04:21:41;16.20;99.90
26982;DHT22;14533;50.848;4.380;2022-09-09T04:24:09;16.10;99.90
26982;DHT22;14533;50.848;4.380;2022-09-09T04:26:36;16.00;99.90
26982;DHT22;14533;50.848;4.380;2022-09-09T04:29:03;16.20;99.90
26982;DHT22;14533;50.848;4.380;2022-09-09T04:31:29;16.10;99.90
26982;DHT22;14533;50.848;4.380;2022-09-09T04:33:55;16.00;99.90
26982;DHT22;14533;50.848;4.380;2022-09-09T04:36:21;16.10;99.90
26982;DHT22;14533;50.848;4.380;2022-09-09T04:38:47;16.00;99.90
26982;DHT22;14533;50.848;4.380;2022-09-09T04:41:15;16.10;99.90
26982;DHT22;14533;50.848;4.380;2022-09-09T04:43:42;16.00;99.90
26982;DHT22;14533;50.848;4.380;2022-09-09T04:46:08;16.00;99.90
26982;DHT22;14533;50.848;4.380;2022-09-09T04:48:33;15.90;99.90
26982;DHT22;14533;50.848;4.380;2022-09-09T04:51:01;16.00;99.90
26982;DHT22;14533;50.848;4.380;2022-09-09T04:53:27;15.90;99.90
26982;DHT22;14533;50.848;4.380;2022-09-09T04:56:01;16.00;99.90
26982;DHT22;14533;50.848;4.380;2022-09-09T04:58:29;16.10;99.90
26982;DHT22;14533;50.848;4.380;2022-09-09T05:01:03;16.20;99.90
26982;DHT22;14533;50.848;4.380;2022-09-09T05:03:29;16.00;99.90
26982;DHT22;14533;50.848;4.380;2022-09-09T05:06:03;16.00;99.90
26982;DHT22;14533;50.848;4.380;2022-09-09T05:08:29;16.10;99.90
26982;DHT22;14533;50.848;4.380;2022-09-09T05:10:55;16.00;99.90
26982;DHT22;14533;50.848;4.380;2022-09-09T05:13:21;16.00;99.90
26982;DHT22;14533;50.848;4.380;2022-09-09T05:15:52;16.00;99.90
26982;DHT22;14533;50.848;4.380;2022-09-09T05:18:18;16.00;99.90
26982;DHT22;14533;50.848;4.380;2022-09-09T05:20:44;16.10;99.90
26982;DHT22;14533;50.848;4.380;2022-09-09T05:23:10;16.20;99.90
26982;DHT22;14533;50.848;4.380;2022-09-09T05:25:38;16.30;99.90
26982;DHT22;14533;50.848;4.380;2022-09-09T05:28:04;16.30;99.90
26982;DHT22;14533;50.848;4.380;2022-09-09T05:30:30;16.30;99.90
26982;DHT22;14533;50.848;4.380;2022-09-09T05:32:56;16.30;99.90
26982;DHT22;14533;50.848;4.380;2022-09-09T05:35:22;16.30;99.90
26982;DHT22;14533;50.848;4.380;2022-09-09T05:37:49;16.30;99.90
26982;DHT22;14533;50.848;4.380;2022-09-09T05:40:14;16.50;99.90
26982;DHT22;14533;50.848;4.380;2022-09-09T05:42:41;16.50;99.90
26982;DHT22;14533;50.848;4.380;2022-09-09T05:45:08;16.50;99.90
26982;DHT22;14533;50.848;4.380;2022-09-09T05:47:34;16.30;99.90
26982;DHT22;14533;50.848;4.380;2022-09-09T05:50:01;16.50;99.90
26982;DHT22;14533;50.848;4.380;2022-09-09T05:52:26;16.40;99.90
26982;DHT22;14533;50.848;4.380;2022-09-09T05:54:52;16.50;99.90
26982;DHT22;14533;50.848;4.380;2022-09-09T05:57:20;16.50;99.90
26982;DHT22;14533;50.848;4.380;2022-09-09T05:59:46;16.50;99.90
26982;DHT22;14533;50.848;4.380;2022-09-09T06:02:11;16.50;99.90
26982;DHT22;14533;50.848;4.380;2022-09-09T06:04:38;16.50;99.90
26982;DHT22;14533;50.848;4.380;2022-09-09T06:07:05;16.40;99.90
26982;DHT22;14533;50.848;4.380;2022-09-09T06:09:31;16.40;99.90
26982;DHT22;14533;50.848;4.380;2022-09-09T06:11:57;16.50;99.90
26982;DHT22;14533;50.848;4.380;2022-09-09T06:14:24;16.50;99.90
26982;DHT22;14533;50.848;4.380;2022-09-09T06:16:51;16.50;99.90
26982;DHT22;14533;50.848;4.380;2022-09-09T06:19:18;16.60;99.90
26982;DHT22;14533;50.848;4.380;2022-09-09T06:21:46;16.70;99.90
26982;DHT22;14533;50.848;4.380;2022-09-09T06:24:13;16.70;99.90
26982;DHT22;14533;50.848;4.380;2022-09-09T06:26:43;16.80;99.90
26982;DHT22;14533;50.848;4.380;2022-09-09T06:29:09;16.90;99.90
26982;DHT22;14533;50.848;4.380;2022-09-09T06:31:36;17.10;99.90
26982;DHT22;14533;50.848;4.380;2022-09-09T06:34:05;17.30;99.90
26982;DHT22;14533;50.848;4.380;2022-09-09T06:36:33;17.30;99.90
26982;DHT22;14533;50.848;4.380;2022-09-09T06:39:00;17.40;99.90
26982;DHT22;14533;50.848;4.380;2022-09-09T06:41:27;17.00;99.90
26982;DHT22;14533;50.848;4.380;2022-09-09T06:43:53;17.00;99.90
26982;DHT22;14533;50.848;4.380;2022-09-09T06:46:28;17.10;99.90
26982;DHT22;14533;50.848;4.380;2022-09-09T06:48:56;17.10;99.90
26982;DHT22;14533;50.848;4.380;2022-09-09T06:51:24;16.90;99.90
26982;DHT22;14533;50.848;4.380;2022-09-09T06:53:52;16.80;99.90
26982;DHT22;14533;50.848;4.380;2022-09-09T06:56:35;16.80;99.90
26982;DHT22;14533;50.848;4.380;2022-09-09T06:59:03;16.90;99.90
26982;DHT22;14533;50.848;4.380;2022-09-09T07:01:31;16.90;99.90
26982;DHT22;14533;50.848;4.380;2022-09-09T07:03:58;16.90;99.90
26982;DHT22;14533;50.848;4.380;2022-09-09T07:06:26;17.00;99.90
26982;DHT22;14533;50.848;4.380;2022-09-09T07:08:54;17.10;99.90
26982;DHT22;14533;50.848;4.380;2022-09-09T07:11:23;17.20;99.90
26982;DHT22;14533;50.848;4.380;2022-09-09T07:13:49;17.30;99.90
26982;DHT22;14533;50.848;4.380;2022-09-09T07:16:17;17.20;99.90
26982;DHT22;14533;50.848;4.380;2022-09-09T07:18:44;17.20;99.90
26982;DHT22;14533;50.848;4.380;2022-09-09T07:21:11;17.10;99.90
26982;DHT22;14533;50.848;4.380;2022-09-09T07:23:40;17.20;99.90
26982;DHT22;14533;50.848;4.380;2022-09-09T07:26:12;17.10;99.90
26982;DHT22;14533;50.848;4.380;2022-09-09T07:28:39;17.10;99.90
26982;DHT22;14533;50.848;4.380;2022-09-09T07:31:06;17.10;99.90
26982;DHT22;14533;50.848;4.380;2022-09-09T07:33:35;17.10;99.90
26982;DHT22;14533;50.848;4.380;2022-09-09T07:36:09;16.90;99.90
26982;DHT22;14533;50.848;4.380;2022-09-09T07:38:42;16.80;99.90
26982;DHT22;14533;50.848;4.380;2022-09-09T07:41:16;16.70;99.90
26982;DHT22;14533;50.848;4.380;2022-09-09T07:43:44;16.80;99.90
26982;DHT22;14533;50.848;4.380;2022-09-09T07:46:12;16.70;99.90
26982;DHT22;14533;50.848;4.380;2022-09-09T07:48:44;16.80;99.90
26982;DHT22;14533;50.848;4.380;2022-09-09T07:51:15;16.70;99.90
26982;DHT22;14533;50.848;4.380;2022-09-09T07:53:45;16.70;99.90
26982;DHT22;14533;50.848;4.380;2022-09-09T07:56:14;16.90;99.90
26982;DHT22;14533;50.848;4.380;2022-09-09T07:58:45;17.00;99.90
26982;DHT22;14533;50.848;4.380;2022-09-09T08:01:15;17.00;99.90
26982;DHT22;14533;50.848;4.380;2022-09-09T08:03:45;16.80;99.90
26982;DHT22;14533;50.848;4.380;2022-09-09T08:06:11;16.90;99.90
26982;DHT22;14533;50.848;4.380;2022-09-09T08:08:38;17.00;99.90
26982;DHT22;14533;50.848;4.380;2022-09-09T08:11:08;17.20;99.90
26982;DHT22;14533;50.848;4.380;2022-09-09T08:13:38;17.40;99.90
26982;DHT22;14533;50.848;4.380;2022-09-09T08:16:15;17.90;99.90
26982;DHT22;14533;50.848;4.380;2022-09-09T08:18:41;18.50;99.90
26982;DHT22;14533;50.848;4.380;2022-09-09T08:21:16;18.40;99.90
26982;DHT22;14533;50.848;4.380;2022-09-09T08:23:45;18.40;99.90
26982;DHT22;14533;50.848;4.380;2022-09-09T08:28:41;18.10;99.90
26982;DHT22;14533;50.848;4.380;2022-09-09T08:31:15;18.10;99.90
26982;DHT22;14533;50.848;4.380;2022-09-09T08:33:42;18.20;99.90
26982;DHT22;14533;50.848;4.380;2022-09-09T08:36:11;18.10;99.90
26982;DHT22;14533;50.848;4.380;2022-09-09T08:38:40;18.00;99.90
26982;DHT22;14533;50.848;4.380;2022-09-09T08:43:48;17.80;99.90
26982;DHT22;14533;50.848;4.380;2022-09-09T08:46:26;17.90;99.90
26982;DHT22;14533;50.848;4.380;2022-09-09T08:48:59;17.60;99.90
26982;DHT22;14533;50.848;4.380;2022-09-09T08:51:27;17.70;99.90
26982;DHT22;14533;50.848;4.380;2022-09-09T08:53:58;17.40;99.90
26982;DHT22;14533;50.848;4.380;2022-09-09T08:56:27;17.30;99.90
26982;DHT22;14533;50.848;4.380;2022-09-09T08:58:54;17.20;99.90
26982;DHT22;14533;50.848;4.380;2022-09-09T09:11:41;17.20;99.90
26982;DHT22;14533;50.848;4.380;2022-09-09T09:14:18;17.20;99.90
26982;DHT22;14533;50.848;4.380;2022-09-09T09:16:57;17.10;99.90
26982;DHT22;14533;50.848;4.380;2022-09-09T09:19:24;17.20;99.90
26982;DHT22;14533;50.848;4.380;2022-09-09T09:24:55;17.00;99.90
26982;DHT22;14533;50.848;4.380;2022-09-09T09:27:35;16.90;99.90
26982;DHT22;14533;50.848;4.380;2022-09-09T09:30:12;16.90;99.90
26982;DHT22;14533;50.848;4.380;2022-09-09T09:32:44;16.90;99.90
26982;DHT22;14533;50.848;4.380;2022-09-09T09:35:13;16.80;99.90
26982;DHT22;14533;50.848;4.380;2022-09-09T09:37:41;16.90;99.90
26982;DHT22;14533;50.848;4.380;2022-09-09T09:40:21;16.80;99.90
26982;DHT22;14533;50.848;4.380;2022-09-09T09:42:57;16.80;99.90
26982;DHT22;14533;50.848;4.380;2022-09-09T09:45:33;16.70;99.90
26982;DHT22;14533;50.848;4.380;2022-09-09T09:48:08;16.80;99.90
26982;DHT22;14533;50.848;4.380;2022-09-09T09:50:35;17.00;99.90
26982;DHT22;14533;50.848;4.380;2022-09-09T09:53:04;16.90;99.90
26982;DHT22;14533;50.848;4.380;2022-09-09T09:55:34;16.90;99.90
26982;DHT22;14533;50.848;4.380;2022-09-09T09:58:13;17.20;99.90
26982;DHT22;14533;50.848;4.380;2022-09-09T10:00:48;17.40;99.90
26982;DHT22;14533;50.848;4.380;2022-09-09T10:03:22;17.30;99.90
26982;DHT22;14533;50.848;4.380;2022-09-09T10:05:48;17.20;99.90
26982;DHT22;14533;50.848;4.380;2022-09-09T10:08:17;17.30;99.90
26982;DHT22;14533;50.848;4.380;2022-09-09T10:11:22;17.20;99.90
26982;DHT22;14533;50.848;4.380;2022-09-09T10:19:46;17.30;99.90
26982;DHT22;14533;50.848;4.380;2022-09-09T10:22:36;17.40;99.90
26982;DHT22;14533;50.848;4.380;2022-09-09T10:25:21;17.30;99.90
26982;DHT22;14533;50.848;4.380;2022-09-09T10:28:05;17.30;99.90
26982;DHT22;14533;50.848;4.380;2022-09-09T10:30:43;17.30;99.90
26982;DHT22;14533;50.848;4.380;2022-09-09T10:33:15;17.40;99.90
26982;DHT22;14533;50.848;4.380;2022-09-09T10:35:52;17.60;99.90
26982;DHT22;14533;50.848;4.380;2022-09-09T10:38:25;17.90;99.90
26982;DHT22;14533;50.848;4.380;2022-09-09T10:43:38;18.30;99.90
26982;DHT22;14533;50.848;4.380;2022-09-09T10:51:32;18.40;99.90
26982;DHT22;14533;50.848;4.380;2022-09-09T10:54:28;18.50;99.90
26982;DHT22;14533;50.848;4.380;2022-09-09T10:57:00;18.60;99.90
26982;DHT22;14533;50.848;4.380;2022-09-09T10:59:33;18.80;99.90
26982;DHT22;14533;50.848;4.380;2022-09-09T11:02:44;19.00;99.90
26982;DHT22;14533;50.848;4.380;2022-09-09T11:05:20;19.00;99.90
26982;DHT22;14533;50.848;4.380;2022-09-09T11:07:48;19.00;99.90
26982;DHT22;14533;50.848;4.380;2022-09-09T11:10:28;18.80;99.90
26982;DHT22;14533;50.848;4.380;2022-09-09T11:13:01;18.70;99.90
26982;DHT22;14533;50.848;4.380;2022-09-09T11:16:05;19.00;99.90
26982;DHT22;14533;50.848;4.380;2022-09-09T11:18:38;18.80;99.90
26982;DHT22;14533;50.848;4.380;2022-09-09T11:21:10;18.90;99.90
26982;DHT22;14533;50.848;4.380;2022-09-09T11:23:42;18.90;99.90
26982;DHT22;14533;50.848;4.380;2022-09-09T11:26:17;19.00;99.90
26982;DHT22;14533;50.848;4.380;2022-09-09T11:28:52;18.80;99.90
26982;DHT22;14533;50.848;4.380;2022-09-09T11:42:20;19.00;99.90
26982;DHT22;14533;50.848;4.380;2022-09-09T11:44:46;19.00;99.90
26982;DHT22;14533;50.848;4.380;2022-09-09T11:47:29;18.90;99.90
26982;DHT22;14533;50.848;4.380;2022-09-09T11:50:28;19.00;99.90
26982;DHT22;14533;50.848;4.380;2022-09-09T11:53:19;19.00;99.90
26982;DHT22;14533;50.848;4.380;2022-09-09T11:55:46;19.00;99.90
26982;DHT22;14533;50.848;4.380;2022-09-09T12:00:43;18.90;99.90
26982;DHT22;14533;50.848;4.380;2022-09-09T12:08:48;18.80;99.90
26982;DHT22;14533;50.848;4.380;2022-09-09T12:11:26;18.90;99.90
26982;DHT22;14533;50.848;4.380;2022-09-09T12:13:56;18.90;99.90
26982;DHT22;14533;50.848;4.380;2022-09-09T12:16:36;19.00;99.90
26982;DHT22;14533;50.848;4.380;2022-09-09T12:19:24;18.70;99.90
26982;DHT22;14533;50.848;4.380;2022-09-09T12:24:46;18.60;99.90
26982;DHT22;14533;50.848;4.380;2022-09-09T12:27:20;18.60;99.90
26982;DHT22;14533;50.848;4.380;2022-09-09T12:30:01;18.80;99.90
26982;DHT22;14533;50.848;4.380;2022-09-09T12:32:28;18.80;99.90
26982;DHT22;14533;50.848;4.380;2022-09-09T12:35:00;18.80;99.90
26982;DHT22;14533;50.848;4.380;2022-09-09T12:37:31;19.00;99.90
26982;DHT22;14533;50.848;4.380;2022-09-09T12:40:00;19.20;99.90
26982;DHT22;14533;50.848;4.380;2022-09-09T12:42:27;19.30;99.90
26982;DHT22;14533;50.848;4.380;2022-09-09T12:44:58;19.30;99.90
26982;DHT22;14533;50.848;4.380;2022-09-09T12:47:34;19.20;99.90
26982;DHT22;14533;50.848;4.380;2022-09-09T12:50:02;19.30;99.90
26982;DHT22;14533;50.848;4.380;2022-09-09T12:52:31;19.40;99.90
26982;DHT22;14533;50.848;4.380;2022-09-09T12:55:00;19.30;99.90
26982;DHT22;14533;50.848;4.380;2022-09-09T12:57:34;19.40;99.90
26982;DHT22;14533;50.848;4.380;2022-09-09T13:00:16;19.50;99.90
26982;DHT22;14533;50.848;4.380;2022-09-09T13:02:57;19.50;99.90
26982;DHT22;14533;50.848;4.380;2022-09-09T13:05:31;19.50;99.90
26982;DHT22;14533;50.848;4.380;2022-09-09T13:08:08;19.80;99.90
26982;DHT22;14533;50.848;4.380;2022-09-09T13:10:51;19.80;99.90
26982;DHT22;14533;50.848;4.380;2022-09-09T13:13:26;19.70;99.90
26982;DHT22;14533;50.848;4.380;2022-09-09T13:15:59;19.60;99.90
26982;DHT22;14533;50.848;4.380;2022-09-09T13:18:39;19.50;99.90
26982;DHT22;14533;50.848;4.380;2022-09-09T13:21:05;19.60;99.90
26982;DHT22;14533;50.848;4.380;2022-09-09T13:23:33;19.90;99.90
26982;DHT22;14533;50.848;4.380;2022-09-09T13:26:06;19.90;99.90
26982;DHT22;14533;50.848;4.380;2022-09-09T13:28:33;19.70;99.90
26982;DHT22;14533;50.848;4.380;2022-09-09T13:31:21;19.80;99.90
26982;DHT22;14533;50.848;4.380;2022-09-09T13:33:47;20.00;99.90
26982;DHT22;14533;50.848;4.380;2022-09-09T13:36:14;20.00;99.90
26982;DHT22;14533;50.848;4.380;2022-09-09T13:41:21;20.20;99.90
26982;DHT22;14533;50.848;4.380;2022-09-09T13:43:48;20.30;99.90
26982;DHT22;14533;50.848;4.380;2022-09-09T13:46:34;20.30;99.90
26982;DHT22;14533;50.848;4.380;2022-09-09T13:49:20;20.60;99.90
26982;DHT22;14533;50.848;4.380;2022-09-09T13:52:02;20.90;99.90
26982;DHT22;14533;50.848;4.380;2022-09-09T13:54:27;21.30;99.90
26982;DHT22;14533;50.848;4.380;2022-09-09T13:56:53;21.40;99.90
26982;DHT22;14533;50.848;4.380;2022-09-09T13:59:20;21.50;99.90
26982;DHT22;14533;50.848;4.380;2022-09-09T14:01:47;21.20;99.90
26982;DHT22;14533;50.848;4.380;2022-09-09T14:04:14;21.10;99.90
26982;DHT22;14533;50.848;4.380;2022-09-09T14:06:41;21.10;99.90
26982;DHT22;14533;50.848;4.380;2022-09-09T14:09:13;21.00;99.90
26982;DHT22;14533;50.848;4.380;2022-09-09T14:11:39;21.20;99.90
26982;DHT22;14533;50.848;4.380;2022-09-09T14:14:05;21.10;99.90
26982;DHT22;14533;50.848;4.380;2022-09-09T14:16:31;21.30;99.90
26982;DHT22;14533;50.848;4.380;2022-09-09T14:18:57;21.10;99.90
26982;DHT22;14533;50.848;4.380;2022-09-09T14:21:23;20.90;99.90
26982;DHT22;14533;50.848;4.380;2022-09-09T14:23:51;20.60;99.90
26982;DHT22;14533;50.848;4.380;2022-09-09T14:26:22;20.50;99.90
26982;DHT22;14533;50.848;4.380;2022-09-09T14:28:49;20.50;99.90
26982;DHT22;14533;50.848;4.380;2022-09-09T14:31:16;20.30;99.90
26982;DHT22;14533;50.848;4.380;2022-09-09T14:33:43;20.30;99.90
26982;DHT22;14533;50.848;4.380;2022-09-09T14:36:10;20.50;99.90
26982;DHT22;14533;50.848;4.380;2022-09-09T14:38:37;20.60;99.90
26982;DHT22;14533;50.848;4.380;2022-09-09T14:41:13;20.90;99.90
26982;DHT22;14533;50.848;4.380;2022-09-09T14:43:40;21.00;99.90
26982;DHT22;14533;50.848;4.380;2022-09-09T14:46:13;20.90;99.90
26982;DHT22;14533;50.848;4.380;2022-09-09T14:48:39;20.60;99.90
26982;DHT22;14533;50.848;4.380;2022-09-09T14:51:11;20.80;99.90
26982;DHT22;14533;50.848;4.380;2022-09-09T14:53:38;21.00;99.90
26982;DHT22;14533;50.848;4.380;2022-09-09T14:56:09;20.90;99.90
26982;DHT22;14533;50.848;4.380;2022-09-09T14:58:36;20.80;99.90
26982;DHT22;14533;50.848;4.380;2022-09-09T15:01:06;21.10;99.90
26982;DHT22;14533;50.848;4.380;2022-09-09T15:03:32;20.90;99.90
26982;DHT22;14533;50.848;4.380;2022-09-09T15:06:04;21.00;99.90
26982;DHT22;14533;50.848;4.380;2022-09-09T15:08:29;20.80;99.90
26982;DHT22;14533;50.848;4.380;2022-09-09T15:10:59;20.80;99.90
26982;DHT22;14533;50.848;4.380;2022-09-09T15:13:26;20.70;99.90
26982;DHT22;14533;50.848;4.380;2022-09-09T15:15:53;20.70;99.90
26982;DHT22;14533;50.848;4.380;2022-09-09T15:18:20;20.60;99.90
26982;DHT22;14533;50.848;4.380;2022-09-09T15:20:47;20.50;99.90
26982;DHT22;14533;50.848;4.380;2022-09-09T15:23:13;20.60;99.90
26982;DHT22;14533;50.848;4.380;2022-09-09T15:25:51;20.70;99.90
26982;DHT22;14533;50.848;4.380;2022-09-09T15:28:17;20.80;99.90
26982;DHT22;14533;50.848;4.380;2022-09-09T15:30:43;21.00;99.90
26982;DHT22;14533;50.848;4.380;2022-09-09T15:33:10;20.80;99.90
26982;DHT22;14533;50.848;4.380;2022-09-09T15:35:36;20.60;99.90
26982;DHT22;14533;50.848;4.380;2022-09-09T15:38:02;20.50;99.90
26982;DHT22;14533;50.848;4.380;2022-09-09T15:40:31;20.50;99.90
26982;DHT22;14533;50.848;4.380;2022-09-09T15:42:58;20.50;99.90
26982;DHT22;14533;50.848;4.380;2022-09-09T15:45:24;20.50;99.90
26982;DHT22;14533;50.848;4.380;2022-09-09T15:47:50;20.60;99.90
26982;DHT22;14533;50.848;4.380;2022-09-09T15:50:17;21.00;99.90
26982;DHT22;14533;50.848;4.380;2022-09-09T15:52:42;21.40;99.90
26982;DHT22;14533;50.848;4.380;2022-09-09T15:55:11;21.90;99.90
26982;DHT22;14533;50.848;4.380;2022-09-09T15:57:37;22.50;99.90
26982;DHT22;14533;50.848;4.380;2022-09-09T16:00:04;22.20;99.90
26982;DHT22;14533;50.848;4.380;2022-09-09T16:02:30;22.10;99.90
26982;DHT22;14533;50.848;4.380;2022-09-09T16:04:56;21.80;99.90
26982;DHT22;14533;50.848;4.380;2022-09-09T16:07:23;21.40;99.90
26982;DHT22;14533;50.848;4.380;2022-09-09T16:09:49;21.50;99.90
26982;DHT22;14533;50.848;4.380;2022-09-09T16:12:18;21.20;99.90
26982;DHT22;14533;50.848;4.380;2022-09-09T16:14:44;20.90;99.90
26982;DHT22;14533;50.848;4.380;2022-09-09T16:17:10;20.90;99.90
26982;DHT22;14533;50.848;4.380;2022-09-09T16:19:40;20.70;99.90
26982;DHT22;14533;50.848;4.380;2022-09-09T16:22:06;20.70;99.90
26982;DHT22;14533;50.848;4.380;2022-09-09T16:24:32;20.50;99.90
26982;DHT22;14533;50.848;4.380;2022-09-09T16:26:58;20.40;99.90
26982;DHT22;14533;50.848;4.380;2022-09-09T16:29:24;20.30;99.90
26982;DHT22;14533;50.848;4.380;2022-09-09T16:31:53;20.30;99.90
26982;DHT22;14533;50.848;4.380;2022-09-09T16:34:19;20.30;99.90
26982;DHT22;14533;50.848;4.380;2022-09-09T16:36:47;19.90;99.90
26982;DHT22;14533;50.848;4.380;2022-09-09T16:39:15;19.60;99.90
26982;DHT22;14533;50.848;4.380;2022-09-09T16:41:43;19.50;99.90
26982;DHT22;14533;50.848;4.380;2022-09-09T16:44:11;19.50;99.90
26982;DHT22;14533;50.848;4.380;2022-09-09T16:46:40;19.60;99.90
26982;DHT22;14533;50.848;4.380;2022-09-09T16:49:09;19.90;99.90
26982;DHT22;14533;50.848;4.380;2022-09-09T16:51:38;20.00;99.90
26982;DHT22;14533;50.848;4.380;2022-09-09T16:54:05;19.80;99.90
26982;DHT22;14533;50.848;4.380;2022-09-09T16:56:34;19.80;99.90
26982;DHT22;14533;50.848;4.380;2022-09-09T16:59:05;19.90;99.90
26982;DHT22;14533;50.848;4.380;2022-09-09T17:01:36;20.00;99.90
26982;DHT22;14533;50.848;4.380;2022-09-09T17:04:05;19.80;99.90
26982;DHT22;14533;50.848;4.380;2022-09-09T17:06:32;19.70;99.90
26982;DHT22;14533;50.848;4.380;2022-09-09T17:09:08;19.80;99.90
26982;DHT22;14533;50.848;4.380;2022-09-09T17:11:35;19.70;99.90
26982;DHT22;14533;50.848;4.380;2022-09-09T17:14:02;19.70;99.90
26982;DHT22;14533;50.848;4.380;2022-09-09T17:16:30;19.70;99.90
26982;DHT22;14533;50.848;4.380;2022-09-09T17:19:00;19.70;99.90
26982;DHT22;14533;50.848;4.380;2022-09-09T17:21:29;19.70;99.90